createdAt,value
2019-01-28T00:04:14.865Z,7.07
2019-01-28T00:09:10.263Z,5.43
2019-01-28T00:14:05.313Z,5.83
2019-01-28T00:18:59.775Z,6.17
2019-01-28T00:23:53.962Z,6.80
2019-01-28T00:28:52.150Z,6.70
2019-01-28T00:33:47.169Z,6.60
2019-01-28T00:38:41.382Z,7.30
2019-01-28T00:43:37.440Z,7.30
2019-01-28T00:48:32.619Z,7.90
2019-01-28T00:53:27.683Z,7.63
2019-01-28T00:58:22.662Z,7.87
2019-01-28T01:03:17.446Z,7.87
2019-01-28T01:08:19.538Z,7.87
2019-01-28T01:13:14.938Z,7.83
2019-01-28T01:18:11.031Z,7.97
2019-01-28T01:23:07.723Z,8.10
2019-01-28T01:28:03.513Z,7.87
2019-01-28T01:32:58.073Z,7.47
2019-01-28T01:37:55.184Z,8.10
2019-01-28T01:42:49.297Z,8.53
2019-01-28T01:47:45.097Z,7.80
2019-01-28T01:52:40.069Z,8.47
2019-01-28T01:57:38.895Z,8.90
2019-01-28T02:02:33.723Z,8.37
2019-01-28T02:07:28.092Z,8.90
2019-01-28T02:12:24.221Z,9.23
2019-01-28T02:17:20.989Z,8.27
2019-01-28T02:22:16.476Z,8.47
2019-01-28T02:27:14.254Z,6.37
2019-01-28T02:32:10.629Z,3.57
2019-01-28T02:37:06.754Z,2.00
2019-01-28T02:42:01.704Z,1.23
2019-01-28T02:46:56.506Z,0.80
2019-01-28T02:51:52.233Z,0.80
2019-01-28T02:56:48.771Z,0.90
2019-01-28T03:01:44.591Z,1.10
2019-01-28T03:06:38.687Z,1.03
2019-01-28T03:11:33.398Z,1.13
2019-01-28T03:16:28.634Z,1.03
2019-01-28T03:21:24.858Z,1.23
2019-01-28T03:26:21.637Z,1.33
2019-01-28T03:31:16.742Z,1.73
2019-01-28T03:36:18.040Z,1.50
2019-01-28T03:41:14.978Z,2.00
2019-01-28T03:46:09.843Z,1.63
2019-01-28T03:51:07.305Z,2.53
2019-01-28T03:56:01.926Z,2.10
2019-01-28T04:01:06.088Z,2.13
2019-01-28T04:06:06.158Z,1.57
2019-01-28T04:11:08.554Z,2.10
2019-01-28T04:16:06.791Z,2.57
2019-01-28T04:21:01.871Z,2.43
2019-01-28T04:25:56.535Z,2.30
2019-01-28T04:30:52.017Z,2.57
2019-01-28T04:35:46.952Z,2.40
2019-01-28T04:40:43.116Z,3.10
2019-01-28T04:45:38.269Z,3.47
2019-01-28T04:50:33.837Z,3.17
2019-01-28T04:55:28.692Z,3.70
2019-01-28T05:00:28.424Z,3.50
2019-01-28T05:05:23.466Z,3.07
2019-01-28T05:10:19.872Z,3.63
2019-01-28T05:15:19.480Z,20.80
2019-01-28T05:20:16.029Z,9.20
2019-01-28T05:25:17.116Z,7.13
2019-01-28T05:30:16.951Z,4.47
2019-01-28T05:35:16.770Z,4.07
2019-01-28T05:40:19.738Z,7.33
2019-01-28T05:45:18.761Z,6.00
2019-01-28T05:50:15.839Z,4.03
2019-01-28T05:55:14.750Z,6.43
2019-01-28T06:00:15.511Z,7.30
2019-01-28T06:05:10.693Z,6.83
2019-01-28T06:10:12.955Z,5.60
2019-01-28T06:15:10.672Z,5.47
2019-01-28T06:20:28.222Z,3.70
2019-01-28T06:25:26.333Z,3.40
2019-01-28T06:30:27.392Z,3.20
2019-01-28T06:35:22.679Z,2.90
2019-01-28T06:40:26.178Z,2.27
2019-01-28T06:45:20.822Z,2.57
2019-01-28T06:50:21.356Z,2.00
2019-01-28T06:55:16.370Z,2.20
2019-01-28T07:00:19.435Z,2.57
2019-01-28T07:05:14.459Z,2.87
2019-01-28T07:10:10.387Z,3.17
2019-01-28T07:15:08.012Z,3.70
2019-01-28T07:20:02.885Z,3.47
2019-01-28T07:24:59.902Z,3.80
2019-01-28T07:29:55.317Z,3.30
2019-01-28T07:34:50.456Z,2.37
2019-01-28T07:39:45.398Z,3.40
2019-01-28T07:44:39.881Z,3.47
2019-01-28T07:49:35.811Z,4.20
2019-01-28T07:54:31.404Z,3.33
2019-01-28T07:59:26.156Z,3.00
2019-01-28T08:04:21.362Z,2.60
2019-01-28T08:09:16.887Z,2.80
2019-01-28T08:14:15.861Z,2.43
2019-01-28T08:19:12.299Z,2.67
2019-01-28T08:24:11.087Z,2.40
2019-01-28T08:29:09.197Z,2.10
2019-01-28T08:34:06.497Z,2.97
2019-01-28T08:39:04.895Z,1.80
2019-01-28T08:43:59.104Z,2.40
2019-01-28T08:48:55.513Z,2.30
2019-01-28T08:53:51.844Z,1.70
2019-01-28T08:58:47.309Z,1.80
2019-01-28T09:03:42.277Z,2.20
2019-01-28T09:08:36.743Z,1.83
2019-01-28T09:13:31.082Z,2.00
2019-01-28T09:18:26.508Z,1.50
2019-01-28T09:23:22.117Z,2.13
2019-01-28T09:28:19.231Z,1.33
2019-01-28T09:33:15.338Z,1.00
2019-01-28T09:38:11.579Z,0.80
2019-01-28T09:43:07.077Z,1.30
2019-01-28T09:48:01.907Z,1.10
2019-01-28T09:52:57.523Z,0.93
2019-01-28T09:57:52.079Z,1.10
2019-01-28T10:02:47.666Z,1.00
2019-01-28T10:07:43.015Z,1.20
2019-01-28T10:12:37.954Z,1.33
2019-01-28T10:17:32.947Z,1.00
2019-01-28T10:22:29.704Z,1.00
2019-01-28T10:27:27.715Z,1.23
2019-01-28T10:32:22.924Z,0.70
2019-01-28T10:37:17.281Z,1.10
2019-01-28T10:42:11.972Z,0.90
2019-01-28T10:47:07.959Z,1.00
2019-01-28T10:52:02.738Z,1.23
2019-01-28T10:56:57.140Z,0.70
2019-01-28T11:01:51.236Z,1.70
2019-01-28T11:06:45.457Z,0.80
2019-01-28T11:11:42.342Z,0.70
2019-01-28T11:16:57.718Z,1.00
2019-01-28T11:21:54.383Z,0.60
2019-01-28T11:26:48.531Z,0.87
2019-01-28T11:31:45.508Z,0.97
2019-01-28T11:36:39.734Z,0.67
2019-01-28T11:41:33.784Z,0.53
2019-01-28T11:46:30.482Z,0.60
2019-01-28T11:51:24.743Z,0.70
2019-01-28T11:56:21.099Z,0.67
2019-01-28T12:01:20.025Z,0.83
2019-01-28T12:06:14.470Z,0.80
2019-01-28T12:11:09.357Z,0.90
2019-01-28T12:16:07.401Z,0.60
2019-01-28T12:21:01.256Z,0.50
2019-01-28T12:25:57.454Z,2.20
2019-01-28T12:35:52.301Z,0.83
2019-01-28T12:40:47.155Z,0.43
2019-01-28T12:45:41.312Z,1.00
2019-01-28T12:50:35.485Z,0.80
2019-01-28T12:55:33.998Z,0.67
2019-01-28T13:00:32.721Z,2.07
2019-01-28T13:05:27.849Z,0.73
2019-01-28T13:10:25.826Z,0.70
2019-01-28T13:15:32.186Z,0.40
2019-01-28T13:20:28.380Z,0.50
2019-01-28T13:25:25.865Z,0.60
2019-01-28T13:30:24.275Z,0.40
2019-01-28T13:35:19.304Z,0.40
2019-01-28T13:40:16.881Z,0.27
2019-01-28T13:45:14.248Z,0.40
2019-01-28T13:50:11.433Z,0.30
2019-01-28T13:55:08.235Z,0.40
2019-01-28T14:00:07.510Z,0.20
2019-01-28T14:05:04.456Z,0.70
2019-01-28T14:10:01.259Z,0.20
2019-01-28T14:14:56.952Z,0.40
2019-01-28T14:19:51.451Z,0.30
2019-01-28T14:24:45.950Z,0.30
2019-01-28T14:29:40.782Z,0.40
2019-01-28T14:34:34.962Z,0.30
2019-01-28T14:39:30.212Z,0.40
2019-01-28T14:44:26.140Z,0.50
2019-01-28T14:49:22.325Z,0.40
2019-01-28T14:54:16.144Z,0.40
2019-01-28T15:05:10.732Z,0.63
2019-01-28T15:10:07.851Z,0.60
2019-01-28T15:15:08.430Z,0.50
2019-01-28T15:20:02.898Z,0.50
2019-01-28T15:24:57.942Z,0.50
2019-01-28T15:29:55.114Z,0.50
2019-01-28T15:34:49.843Z,0.70
2019-01-28T15:39:44.288Z,0.50
2019-01-28T15:44:39.275Z,0.70
2019-01-28T15:49:34.065Z,0.60
2019-01-28T15:54:28.746Z,0.80
2019-01-28T15:59:23.503Z,1.53
2019-01-28T16:04:17.487Z,0.60
2019-01-28T16:09:13.170Z,0.80
2019-01-28T16:14:08.205Z,0.70
2019-01-28T16:19:04.217Z,0.80
2019-01-28T16:23:58.750Z,2.43
2019-01-28T16:28:53.686Z,0.63
2019-01-28T16:33:50.492Z,0.80
2019-01-28T16:38:44.710Z,0.80
2019-01-28T16:43:39.326Z,0.90
2019-01-28T16:48:34.464Z,1.00
2019-01-28T16:53:29.559Z,1.47
2019-01-28T16:58:25.891Z,0.80
2019-01-28T17:03:21.164Z,1.43
2019-01-28T17:08:15.341Z,0.90
2019-01-28T17:13:09.823Z,0.83
2019-01-28T17:18:09.364Z,0.60
2019-01-28T17:23:03.992Z,1.30
2019-01-28T17:27:58.559Z,1.10
2019-01-28T17:32:53.170Z,0.90
2019-01-28T17:37:52.230Z,1.50
2019-01-28T17:42:48.259Z,0.73
2019-01-28T17:47:44.601Z,0.70
2019-01-28T17:52:39.343Z,0.70
2019-01-28T17:57:37.574Z,0.70
2019-01-28T18:02:33.301Z,0.90
2019-01-28T18:07:30.943Z,0.97
2019-01-28T18:12:25.286Z,0.70
2019-01-28T18:17:19.892Z,20.40
2019-01-28T18:22:15.085Z,13.27
2019-01-28T18:27:09.746Z,2.57
2019-01-28T18:32:06.338Z,0.80
2019-01-28T18:37:03.995Z,0.93
2019-01-28T18:42:02.313Z,0.80
2019-01-28T18:46:56.199Z,7.07
2019-01-28T18:51:50.871Z,0.70
2019-01-28T18:56:46.421Z,1.00
2019-01-28T19:01:42.094Z,1.83
2019-01-28T19:06:42.458Z,0.97
2019-01-28T19:11:50.585Z,1.10
2019-01-28T19:17:08.217Z,1.00
2019-01-28T19:22:05.103Z,1.13
2019-01-28T19:26:59.625Z,1.73
2019-01-28T19:31:53.892Z,1.60
2019-01-28T19:36:49.348Z,1.63
2019-01-28T19:41:44.437Z,1.80
2019-01-28T19:46:38.559Z,2.70
2019-01-28T19:51:33.012Z,2.20
2019-01-28T19:56:28.960Z,1.80
2019-01-28T20:01:23.161Z,1.90
2019-01-28T20:06:20.593Z,2.20
2019-01-28T20:11:14.861Z,1.97
2019-01-28T20:16:15.569Z,2.30
2019-01-28T20:21:11.402Z,2.40
2019-01-28T20:26:09.531Z,3.33
2019-01-28T20:31:07.849Z,3.83
2019-01-28T20:36:02.582Z,2.83
2019-01-28T20:40:56.475Z,2.80
2019-01-28T20:45:50.788Z,3.00
2019-01-28T20:50:46.034Z,3.70
2019-01-28T20:55:41.812Z,2.93
2019-01-28T21:00:36.937Z,3.47
2019-01-28T21:05:31.841Z,3.57
2019-01-28T21:10:28.971Z,3.80
2019-01-28T21:15:24.227Z,3.97
2019-01-28T21:20:20.763Z,3.80
2019-01-28T21:25:17.376Z,3.70
2019-01-28T21:30:15.465Z,4.10
2019-01-28T21:35:11.619Z,3.97
2019-01-28T21:45:15.674Z,3.77
2019-01-28T21:50:11.617Z,4.83
2019-01-28T21:55:08.053Z,5.20
2019-01-28T22:00:05.461Z,5.10
2019-01-28T22:04:59.822Z,6.97
2019-01-28T22:09:55.157Z,6.10
2019-01-28T22:14:49.241Z,6.93
2019-01-28T22:19:44.183Z,6.47
2019-01-28T22:24:38.965Z,7.00
2019-01-28T22:29:35.140Z,6.97
2019-01-28T22:34:30.177Z,7.20
2019-01-28T22:39:27.159Z,7.73
2019-01-28T22:44:21.537Z,9.37
2019-01-28T22:49:17.908Z,8.37
2019-01-28T22:54:12.645Z,8.17
2019-01-28T22:59:06.847Z,6.57
2019-01-28T23:04:01.973Z,7.37
2019-01-28T23:08:56.275Z,7.37
2019-01-28T23:13:53.883Z,7.20
2019-01-28T23:18:53.001Z,6.27
2019-01-28T23:23:48.599Z,6.27
2019-01-28T23:28:43.741Z,5.60
2019-01-28T23:33:39.229Z,4.77
2019-01-28T23:38:35.986Z,3.70
2019-01-28T23:43:31.919Z,4.70
2019-01-28T23:48:26.913Z,3.90
2019-01-28T23:53:21.105Z,3.57
2019-01-28T23:58:18.408Z,3.57
